Time;durP1;ratioP1;P1;durP2;ratioP2;P2;SDS_P1;SDS_P2;PMS_P1;PMS_P2;Temp;Humidity;BMP_temperature;BMP_pressure;BME280_temperature;BME280_humidity;BME280_pressure;Samples;Min_cycle;Max_cycle;Signal;HPM_P1;HPM_P2
2021/01/22 00:01:25;;;;;;;6.37;3.77;;;3.80;99.90;;;;;;5007737;28;20181;-62
2021/01/22 00:03:52;;;;;;;5.70;3.60;;;3.80;99.90;;;;;;5009547;28;20295;-60
2021/01/22 00:06:18;;;;;;;5.10;3.50;;;3.80;99.90;;;;;;5008977;28;20194;-59
2021/01/22 00:08:44;;;;;;;6.60;3.37;;;3.80;99.90;;;;;;5008935;28;20486;-57
2021/01/22 00:11:10;;;;;;;4.60;3.27;;;3.80;99.90;;;;;;5009763;28;20490;-60
2021/01/22 00:13:35;;;;;;;4.43;3.43;;;3.80;99.90;;;;;;5023634;28;20635;-59
2021/01/22 00:16:01;;;;;;;6.80;3.80;;;3.80;99.90;;;;;;5009634;28;20463;-60
2021/01/22 00:18:27;;;;;;;7.97;4.67;;;3.90;99.90;;;;;;5008911;28;20196;-60
2021/01/22 00:20:55;;;;;;;6.17;4.33;;;3.80;99.90;;;;;;5009672;28;20639;-59
2021/01/22 00:23:21;;;;;;;8.53;4.47;;;3.80;99.90;;;;;;5006420;28;20179;-62
2021/01/22 00:25:46;;;;;;;7.67;4.20;;;3.80;99.90;;;;;;5022937;28;20435;-59
2021/01/22 00:28:12;;;;;;;5.37;3.60;;;3.80;99.90;;;;;;5005070;28;20207;-59
2021/01/22 00:30:38;;;;;;;5.47;4.10;;;3.80;99.90;;;;;;4998494;28;20208;-59
2021/01/22 00:33:03;;;;;;;6.90;3.27;;;3.90;99.90;;;;;;5008196;28;20235;-61
2021/01/22 00:35:29;;;;;;;5.80;3.47;;;3.90;99.90;;;;;;5003545;28;20276;-59
2021/01/22 00:37:54;;;;;;;4.93;3.37;;;3.90;99.90;;;;;;5006868;28;20196;-62
2021/01/22 00:40:20;;;;;;;8.07;3.80;;;3.90;99.90;;;;;;5027543;28;20655;-60
2021/01/22 00:42:46;;;;;;;5.03;3.57;;;3.90;99.90;;;;;;4991939;28;20187;-60
2021/01/22 00:45:12;;;;;;;10.83;3.20;;;3.90;99.90;;;;;;5011605;28;20658;-60
2021/01/22 00:47:37;;;;;;;3.93;3.53;;;3.90;99.90;;;;;;5011512;28;20303;-60
2021/01/22 00:50:04;;;;;;;3.50;2.43;;;3.90;99.90;;;;;;5023560;28;21040;-59
2021/01/22 00:52:29;;;;;;;4.93;3.10;;;3.90;99.90;;;;;;5010056;28;20262;-61
2021/01/22 00:54:55;;;;;;;3.47;2.70;;;4.00;99.90;;;;;;5010839;28;20471;-59
2021/01/22 00:57:21;;;;;;;7.30;3.17;;;4.00;99.90;;;;;;5011231;28;20257;-59
2021/01/22 00:59:47;;;;;;;4.80;2.90;;;4.10;99.90;;;;;;5013134;28;20220;-59
2021/01/22 01:02:13;;;;;;;4.60;2.90;;;4.10;99.90;;;;;;5010811;28;20198;-63
2021/01/22 01:04:38;;;;;;;5.43;3.33;;;4.10;99.90;;;;;;5009762;28;20450;-60
2021/01/22 01:07:04;;;;;;;5.00;3.43;;;4.10;99.90;;;;;;5013929;28;20201;-60
2021/01/22 01:09:30;;;;;;;5.40;3.37;;;4.20;99.90;;;;;;5009919;28;20380;-59
2021/01/22 01:11:55;;;;;;;8.77;3.67;;;4.10;99.90;;;;;;5011821;28;20224;-57
2021/01/22 01:14:21;;;;;;;9.50;2.60;;;4.20;99.90;;;;;;5012548;28;20458;-59
2021/01/22 01:16:47;;;;;;;2.53;2.33;;;4.20;99.90;;;;;;5013378;28;20642;-59
2021/01/22 01:19:13;;;;;;;8.60;3.10;;;4.20;99.90;;;;;;5012285;28;20180;-61
2021/01/22 01:21:38;;;;;;;3.03;2.60;;;4.20;99.90;;;;;;5007241;28;21005;-61
2021/01/22 01:24:04;;;;;;;3.70;2.60;;;4.20;99.90;;;;;;5010963;28;20195;-61
2021/01/22 01:26:30;;;;;;;5.03;2.93;;;4.20;99.90;;;;;;5026475;28;20279;-62
2021/01/22 01:28:56;;;;;;;3.00;2.30;;;4.20;99.90;;;;;;5009929;28;20557;-59
2021/01/22 01:31:21;;;;;;;3.83;3.00;;;4.20;99.90;;;;;;5012820;28;20189;-59
2021/01/22 01:33:47;;;;;;;6.30;2.80;;;4.20;99.90;;;;;;5013431;28;20214;-59
2021/01/22 01:36:13;;;;;;;3.17;2.33;;;4.20;99.90;;;;;;5009283;28;20232;-59
2021/01/22 01:38:38;;;;;;;3.40;2.20;;;4.20;99.90;;;;;;5008322;28;20243;-59
2021/01/22 01:41:07;;;;;;;2.80;2.50;;;4.20;99.90;;;;;;4995938;28;20276;-59
2021/01/22 01:43:32;;;;;;;2.90;1.77;;;4.20;99.90;;;;;;4995327;28;20259;-61
2021/01/22 01:45:58;;;;;;;2.53;1.90;;;4.20;99.90;;;;;;5004545;28;20959;-59
2021/01/22 01:48:24;;;;;;;4.53;1.90;;;4.20;99.90;;;;;;4992655;28;20228;-59
2021/01/22 01:50:50;;;;;;;2.00;1.83;;;4.20;99.90;;;;;;4992739;28;20412;-58
2021/01/22 01:53:16;;;;;;;2.43;1.63;;;4.20;99.90;;;;;;5006006;28;20910;-59
2021/01/22 01:55:42;;;;;;;2.20;2.00;;;4.30;99.90;;;;;;5012855;28;20467;-59
2021/01/22 01:58:08;;;;;;;4.23;2.00;;;4.30;99.90;;;;;;5012456;28;20431;-60
2021/01/22 02:00:34;;;;;;;2.40;2.00;;;4.30;99.90;;;;;;5011719;28;20513;-59
2021/01/22 02:03:01;;;;;;;4.50;2.10;;;4.40;99.90;;;;;;5012744;28;20481;-60
2021/01/22 02:05:26;;;;;;;1.83;1.73;;;4.40;99.90;;;;;;5010721;28;20938;-59
2021/01/22 02:07:52;;;;;;;2.20;1.90;;;4.40;99.90;;;;;;5012570;28;20454;-61
2021/01/22 02:10:20;;;;;;;5.03;2.47;;;4.40;99.90;;;;;;5006584;28;20198;-59
2021/01/22 02:12:47;;;;;;;4.70;2.40;;;4.40;99.90;;;;;;5004904;28;20183;-60
2021/01/22 02:15:14;;;;;;;5.17;2.40;;;4.40;99.90;;;;;;5007741;28;20459;-59
2021/01/22 02:17:42;;;;;;;3.90;2.20;;;4.30;99.90;;;;;;5009878;28;20443;-59
2021/01/22 02:20:23;;;;;;;3.23;2.20;;;4.30;99.90;;;;;;5003154;28;20439;-60
2021/01/22 02:22:49;;;;;;;3.53;2.20;;;4.30;99.90;;;;;;5010459;28;20423;-59
2021/01/22 02:25:17;;;;;;;3.00;1.70;;;4.30;99.90;;;;;;5008866;28;20876;-59
2021/01/22 02:27:45;;;;;;;4.73;1.93;;;4.30;99.90;;;;;;5011636;28;20463;-60
2021/01/22 02:30:11;;;;;;;2.10;1.90;;;4.30;99.90;;;;;;5010057;28;20431;-59
2021/01/22 02:32:44;;;;;;;3.03;1.90;;;4.30;99.90;;;;;;5002035;28;20427;-61
2021/01/22 02:35:12;;;;;;;2.17;1.97;;;4.30;99.90;;;;;;5021359;28;20606;-59
2021/01/22 02:37:38;;;;;;;3.50;1.90;;;4.30;99.90;;;;;;5004721;28;20460;-58
2021/01/22 02:40:09;;;;;;;4.40;1.93;;;4.30;99.90;;;;;;5010671;28;20509;-61
2021/01/22 02:42:37;;;;;;;2.50;1.80;;;4.30;99.90;;;;;;5012356;28;20430;-60
2021/01/22 02:45:04;;;;;;;2.93;1.87;;;4.30;99.90;;;;;;5008753;28;20950;-61
2021/01/22 02:47:31;;;;;;;2.20;1.40;;;4.20;99.90;;;;;;5004459;28;20873;-59
2021/01/22 02:49:57;;;;;;;3.63;1.80;;;4.20;99.90;;;;;;5002094;28;20928;-58
2021/01/22 02:52:23;;;;;;;3.53;2.10;;;4.20;99.90;;;;;;4996027;28;20474;-59
2021/01/22 02:54:50;;;;;;;2.00;1.40;;;4.20;99.90;;;;;;5003287;28;20528;-61
2021/01/22 02:57:23;;;;;;;1.80;1.67;;;4.20;99.90;;;;;;5009094;28;20716;-60
2021/01/22 03:00:04;;;;;;;5.07;1.80;;;4.20;99.90;;;;;;5000774;28;20443;-61
2021/01/22 03:02:53;;;;;;;2.10;1.40;;;4.20;99.90;;;;;;5005624;28;20433;-59
2021/01/22 03:05:23;;;;;;;2.23;1.70;;;4.20;99.90;;;;;;5008425;28;20434;-59
2021/01/22 03:07:58;;;;;;;5.70;1.53;;;4.10;99.90;;;;;;5007864;28;20458;-60
2021/01/22 03:10:26;;;;;;;2.77;1.77;;;4.10;99.90;;;;;;5004388;28;20437;-60
2021/01/22 03:12:53;;;;;;;3.97;1.70;;;4.10;99.90;;;;;;5009122;28;20423;-59
2021/01/22 03:15:21;;;;;;;4.67;1.90;;;4.10;99.90;;;;;;5009281;28;20550;-60
2021/01/22 03:17:47;;;;;;;2.30;1.37;;;4.10;99.90;;;;;;5010870;28;20434;-60
2021/01/22 03:20:15;;;;;;;7.87;1.80;;;4.00;99.90;;;;;;5010503;28;20564;-61
2021/01/22 03:22:41;;;;;;;2.70;1.50;;;4.10;99.90;;;;;;5001484;28;20435;-61
2021/01/22 03:25:09;;;;;;;4.00;1.70;;;4.00;99.90;;;;;;4991576;28;20823;-60
2021/01/22 03:27:35;;;;;;;2.63;1.47;;;4.10;99.90;;;;;;4999109;28;20206;-60
2021/01/22 03:30:01;;;;;;;7.80;1.40;;;4.10;99.90;;;;;;5003422;28;20437;-61
2021/01/22 03:32:29;;;;;;;1.77;1.57;;;4.10;99.90;;;;;;5000875;28;20667;-60
2021/01/22 03:34:54;;;;;;;3.37;1.37;;;4.10;99.90;;;;;;4999855;28;20279;-60
2021/01/22 03:37:20;;;;;;;3.67;1.50;;;4.10;99.90;;;;;;5010726;28;20594;-59
2021/01/22 03:39:45;;;;;;;2.20;1.17;;;4.10;99.90;;;;;;5007094;28;20188;-60
2021/01/22 03:42:11;;;;;;;1.77;1.60;;;4.00;99.90;;;;;;5005331;28;20200;-62
2021/01/22 03:44:37;;;;;;;2.13;1.30;;;4.00;99.90;;;;;;5010775;28;20742;-62
2021/01/22 03:47:03;;;;;;;3.07;1.40;;;4.00;99.90;;;;;;5002677;28;20772;-59
2021/01/22 03:49:33;;;;;;;1.77;1.67;;;4.00;99.90;;;;;;5005460;28;20687;-59
2021/01/22 03:52:00;;;;;;;7.30;1.43;;;4.10;99.90;;;;;;5004909;28;20266;-60
2021/01/22 03:54:26;;;;;;;3.70;1.40;;;4.10;99.90;;;;;;5013342;28;20453;-60
2021/01/22 03:56:52;;;;;;;3.63;1.37;;;4.10;99.90;;;;;;5000542;28;20443;-59
2021/01/22 03:59:18;;;;;;;2.13;1.73;;;4.10;99.90;;;;;;4998010;28;20788;-60
2021/01/22 04:01:43;;;;;;;2.73;1.03;;;4.20;99.90;;;;;;5010844;28;20518;-62
2021/01/22 04:04:09;;;;;;;2.80;0.90;;;4.20;99.90;;;;;;5007902;28;20623;-60
2021/01/22 04:06:35;;;;;;;6.70;1.20;;;4.20;99.90;;;;;;5016944;28;20181;-59
2021/01/22 04:09:01;;;;;;;3.97;1.20;;;4.30;99.90;;;;;;4995867;28;20207;-59
2021/01/22 04:11:27;;;;;;;1.13;0.80;;;4.40;99.90;;;;;;5010814;28;20930;-60
2021/01/22 04:13:55;;;;;;;1.87;1.10;;;4.50;99.90;;;;;;5016708;28;20648;-60
2021/01/22 04:16:21;;;;;;;4.83;1.00;;;4.60;99.90;;;;;;5015444;28;20210;-58
2021/01/22 04:18:47;;;;;;;1.57;1.00;;;4.60;99.90;;;;;;5016701;28;20435;-60
2021/01/22 04:21:12;;;;;;;1.10;1.00;;;4.70;99.90;;;;;;5016020;28;20438;-60
2021/01/22 04:23:38;;;;;;;1.70;1.20;;;4.60;99.90;;;;;;5000387;28;20212;-60
2021/01/22 04:26:04;;;;;;;1.63;1.00;;;4.70;99.90;;;;;;5001069;28;20287;-61
2021/01/22 04:28:30;;;;;;;2.00;1.10;;;4.70;99.90;;;;;;5014831;28;20204;-63
2021/01/22 04:30:55;;;;;;;4.40;1.50;;;4.70;99.90;;;;;;4997982;28;20952;-60
2021/01/22 04:33:21;;;;;;;1.80;0.90;;;4.80;99.90;;;;;;5001097;28;20181;-60
2021/01/22 04:35:47;;;;;;;4.20;1.00;;;4.80;99.90;;;;;;5011009;28;20204;-60
2021/01/22 04:38:12;;;;;;;1.33;0.70;;;4.80;99.90;;;;;;5005147;28;20335;-60
2021/01/22 04:40:38;;;;;;;1.17;0.80;;;4.80;99.90;;;;;;5005595;28;20219;-59
2021/01/22 04:43:05;;;;;;;1.17;0.90;;;4.80;99.90;;;;;;5001570;28;20807;-60
2021/01/22 04:45:30;;;;;;;0.80;0.80;;;4.90;99.90;;;;;;5000316;28;20200;-61
2021/01/22 04:47:59;;;;;;;1.93;0.90;;;4.90;99.90;;;;;;5009941;28;20492;-60
2021/01/22 04:50:25;;;;;;;3.73;1.20;;;4.90;99.90;;;;;;5000468;28;20212;-62
2021/01/22 04:52:54;;;;;;;1.10;1.00;;;4.90;99.90;;;;;;5009296;28;20459;-60
2021/01/22 04:55:20;;;;;;;1.47;1.00;;;4.90;99.90;;;;;;5011202;28;20470;-60
2021/01/22 04:57:47;;;;;;;1.00;0.80;;;4.80;99.90;;;;;;5008775;28;20446;-60
2021/01/22 05:00:16;;;;;;;1.03;0.90;;;4.90;99.90;;;;;;5004097;28;20918;-60
2021/01/22 05:02:41;;;;;;;3.73;1.07;;;4.90;99.90;;;;;;5012955;28;20429;-60
2021/01/22 05:05:08;;;;;;;0.83;0.83;;;4.90;99.90;;;;;;5013672;28;20429;-60
2021/01/22 05:07:34;;;;;;;1.53;0.80;;;4.90;99.90;;;;;;5003242;28;20576;-60
2021/01/22 05:10:00;;;;;;;0.90;0.90;;;4.90;99.90;;;;;;5011444;28;20435;-60
2021/01/22 05:12:36;;;;;;;1.73;1.00;;;4.90;99.90;;;;;;5013351;28;20956;-60
2021/01/22 05:15:24;;;;;;;0.93;0.93;;;4.90;99.90;;;;;;5012344;28;20509;-60
2021/01/22 05:18:03;;;;;;;0.80;0.80;;;5.00;99.90;;;;;;4997760;28;20440;-61
2021/01/22 05:20:38;;;;;;;1.23;1.13;;;5.00;99.90;;;;;;5008897;28;20502;-59
2021/01/22 05:23:05;;;;;;;1.03;1.00;;;5.00;99.90;;;;;;4994211;28;20498;-60
2021/01/22 05:25:32;;;;;;;1.10;0.97;;;5.00;99.90;;;;;;4997423;28;20424;-62
2021/01/22 05:27:59;;;;;;;2.13;0.80;;;5.00;99.90;;;;;;5006837;28;20822;-60
2021/01/22 05:30:30;;;;;;;1.90;0.80;;;5.00;99.90;;;;;;5005634;28;20523;-60
2021/01/22 05:33:26;;;;;;;5.23;0.83;;;5.00;99.90;;;;;;5008941;28;20431;-59
2021/01/22 05:35:52;;;;;;;1.33;0.77;;;5.10;99.90;;;;;;4998724;28;20542;-61
2021/01/22 05:38:18;;;;;;;1.93;1.23;;;5.10;99.90;;;;;;5010143;28;20451;-61
2021/01/22 05:40:50;;;;;;;2.23;1.00;;;5.10;99.90;;;;;;5010125;28;20440;-60
2021/01/22 05:43:17;;;;;;;1.57;0.80;;;5.10;99.90;;;;;;5005784;28;20235;-62
2021/01/22 05:45:44;;;;;;;4.73;1.17;;;5.20;99.90;;;;;;5011080;28;20941;-63
2021/01/22 05:48:28;;;;;;;1.00;0.90;;;5.20;99.90;;;;;;5029318;23;20506;-56
2021/01/22 05:50:59;;;;;;;0.93;0.90;;;5.20;99.90;;;;;;5008372;28;20774;-57
2021/01/22 05:53:27;;;;;;;1.13;0.87;;;5.20;99.90;;;;;;5002106;28;20789;-58
2021/01/22 05:56:06;;;;;;;1.10;1.00;;;5.20;99.90;;;;;;4999911;28;20447;-56
2021/01/22 05:58:32;;;;;;;1.53;1.03;;;5.20;99.90;;;;;;4997968;28;20991;-60
2021/01/22 06:01:16;;;;;;;2.40;0.90;;;5.20;99.90;;;;;;5001588;28;20432;-60
2021/01/22 06:03:47;;;;;;;1.23;0.93;;;5.20;99.90;;;;;;5001085;28;20505;-60
2021/01/22 06:06:14;;;;;;;1.30;1.00;;;5.20;99.90;;;;;;5002646;28;20956;-59
2021/01/22 06:09:00;;;;;;;1.03;0.90;;;5.20;99.90;;;;;;5006666;28;20757;-58
2021/01/22 06:11:32;;;;;;;1.10;1.00;;;5.10;99.90;;;;;;5000168;28;20440;-59
2021/01/22 06:14:02;;;;;;;5.60;1.00;;;5.10;99.90;;;;;;4997755;28;20813;-58
2021/01/22 06:16:29;;;;;;;0.90;0.90;;;5.10;99.90;;;;;;4995327;28;20586;-57
2021/01/22 06:19:07;;;;;;;2.13;1.50;;;5.00;99.90;;;;;;5000911;28;20879;-61
2021/01/22 06:21:40;;;;;;;1.30;1.20;;;5.00;99.90;;;;;;5000787;28;20439;-58
2021/01/22 06:24:07;;;;;;;1.50;1.23;;;5.00;99.90;;;;;;4999363;28;21039;-59
2021/01/22 06:26:38;;;;;;;2.43;1.07;;;4.90;99.90;;;;;;4997563;28;20450;-59
2021/01/22 06:29:06;;;;;;;2.50;1.20;;;4.90;99.90;;;;;;5002881;28;20460;-59
2021/01/22 06:31:32;;;;;;;2.00;1.57;;;4.90;99.90;;;;;;4997041;28;20907;-60
2021/01/22 06:33:58;;;;;;;1.20;1.10;;;4.90;99.90;;;;;;4990098;28;20432;-59
2021/01/22 06:36:24;;;;;;;1.03;1.03;;;4.90;99.90;;;;;;4999612;28;20641;-59
2021/01/22 06:38:51;;;;;;;0.90;0.90;;;4.90;99.90;;;;;;4989325;28;20866;-56
2021/01/22 06:41:21;;;;;;;0.87;0.87;;;4.90;99.90;;;;;;4992544;28;20431;-59
2021/01/22 06:43:46;;;;;;;1.20;1.10;;;4.90;99.90;;;;;;4994820;28;20820;-59
2021/01/22 06:46:15;;;;;;;2.33;2.13;;;4.90;99.90;;;;;;4987879;28;20557;-57
2021/01/22 06:48:54;;;;;;;1.10;1.10;;;4.90;99.90;;;;;;4989168;28;20236;-60
2021/01/22 06:51:25;;;;;;;1.13;1.03;;;4.90;99.90;;;;;;4990277;28;20599;-59
2021/01/22 06:54:18;;;;;;;1.40;1.30;;;5.00;99.90;;;;;;4994720;28;21025;-59
2021/01/22 06:56:47;;;;;;;1.63;1.53;;;5.00;99.90;;;;;;4990065;28;20441;-57
2021/01/22 06:59:22;;;;;;;6.83;2.00;;;5.00;99.90;;;;;;4983585;28;20468;-59
2021/01/22 07:01:53;;;;;;;2.07;1.70;;;5.00;99.90;;;;;;4981271;28;20423;-59
2021/01/22 07:04:34;;;;;;;3.43;1.40;;;5.00;99.90;;;;;;4979312;28;20441;-58
2021/01/22 07:07:09;;;;;;;2.07;1.30;;;5.00;99.90;;;;;;4989729;28;20436;-59
2021/01/22 07:09:45;;;;;;;1.40;1.20;;;4.90;99.90;;;;;;4987178;28;20462;-56
2021/01/22 07:12:17;;;;;;;3.03;1.20;;;5.00;99.90;;;;;;4986528;28;20427;-59
2021/01/22 07:14:48;;;;;;;1.43;1.20;;;4.90;99.90;;;;;;4983525;28;20602;-58
2021/01/22 07:17:29;;;;;;;1.53;1.27;;;5.00;99.90;;;;;;4986784;28;20474;-60
2021/01/22 07:20:07;;;;;;;2.10;1.50;;;5.00;99.90;;;;;;4993496;28;20429;-59
2021/01/22 07:22:34;;;;;;;2.10;1.50;;;5.00;99.90;;;;;;4991545;28;20434;-60
2021/01/22 07:25:07;;;;;;;1.47;1.37;;;4.90;99.90;;;;;;4994999;28;21197;-56
2021/01/22 07:27:44;;;;;;;1.37;1.27;;;4.90;99.90;;;;;;4994249;28;20450;-57
2021/01/22 07:30:15;;;;;;;1.60;1.50;;;5.00;99.90;;;;;;4998270;28;20435;-56
2021/01/22 07:32:43;;;;;;;1.37;1.27;;;5.00;99.90;;;;;;4994798;28;20432;-59
2021/01/22 07:35:22;;;;;;;1.40;1.20;;;5.00;99.90;;;;;;4993667;28;20989;-58
2021/01/22 07:37:51;;;;;;;1.23;1.20;;;5.00;99.90;;;;;;4993289;28;20462;-58
2021/01/22 07:40:20;;;;;;;1.70;1.60;;;5.00;99.90;;;;;;4991925;28;20427;-58
2021/01/22 07:42:46;;;;;;;2.67;1.20;;;5.00;99.90;;;;;;4997030;28;20813;-55
2021/01/22 07:45:18;;;;;;;1.33;1.23;;;5.00;99.90;;;;;;5001830;28;20443;-59
2021/01/22 07:47:45;;;;;;;2.40;1.40;;;5.00;99.90;;;;;;4995087;28;20504;-58
2021/01/22 07:50:13;;;;;;;1.33;1.13;;;5.10;99.90;;;;;;5000122;28;20480;-58
2021/01/22 07:52:42;;;;;;;2.37;1.37;;;5.10;99.90;;;;;;4996362;28;20443;-59
2021/01/22 07:55:26;;;;;;;2.77;2.20;;;5.10;99.90;;;;;;4996827;28;20450;-57
2021/01/22 07:58:05;;;;;;;2.07;1.57;;;5.10;99.90;;;;;;4997853;28;20959;-56
2021/01/22 08:00:40;;;;;;;1.27;1.13;;;5.10;99.90;;;;;;4997493;28;20419;-58
2021/01/22 08:03:11;;;;;;;2.57;1.10;;;5.10;99.90;;;;;;4997141;28;20442;-55
2021/01/22 08:05:38;;;;;;;1.80;1.07;;;5.20;99.90;;;;;;4989995;28;20937;-59
2021/01/22 08:08:20;;;;;;;1.77;1.20;;;5.20;99.90;;;;;;4995900;28;21231;-59
2021/01/22 08:10:46;;;;;;;0.90;0.90;;;5.20;99.90;;;;;;5001014;28;20428;-59
2021/01/22 08:13:12;;;;;;;2.47;1.30;;;5.20;99.90;;;;;;5002402;28;20497;-56
2021/01/22 08:15:38;;;;;;;2.07;1.40;;;5.20;99.90;;;;;;4996193;28;20456;-59
2021/01/22 08:18:06;;;;;;;1.63;1.30;;;5.20;99.90;;;;;;4995318;28;20292;-58
2021/01/22 08:20:33;;;;;;;1.23;1.13;;;5.20;99.90;;;;;;4997641;28;20195;-60
2021/01/22 08:22:59;;;;;;;1.03;1.03;;;5.20;99.90;;;;;;4999835;28;20467;-60
2021/01/22 08:25:35;;;;;;;1.33;1.27;;;5.30;99.90;;;;;;5000682;28;20449;-60
2021/01/22 08:28:03;;;;;;;1.80;1.40;;;5.30;99.90;;;;;;5003277;28;20832;-59
2021/01/22 08:30:29;;;;;;;5.83;3.03;;;5.30;99.90;;;;;;5005143;28;20952;-58
2021/01/22 08:32:56;;;;;;;9.63;4.00;;;5.30;99.90;;;;;;4994133;28;20860;-58
2021/01/22 08:35:24;;;;;;;7.60;2.80;;;5.30;99.90;;;;;;5002668;28;20462;-58
2021/01/22 08:37:54;;;;;;;4.20;1.53;;;5.30;99.90;;;;;;4997020;28;21294;-59
2021/01/22 08:40:21;;;;;;;5.63;1.73;;;5.30;99.90;;;;;;5001782;28;20431;-58
2021/01/22 08:43:05;;;;;;;3.10;1.60;;;5.20;99.90;;;;;;5005189;28;21114;-59
2021/01/22 08:45:31;;;;;;;4.97;1.73;;;5.30;99.90;;;;;;5001407;28;20474;-60
2021/01/22 08:47:57;;;;;;;3.30;1.60;;;5.30;99.90;;;;;;4998145;28;20494;-60
2021/01/22 08:50:22;;;;;;;2.60;1.90;;;5.30;99.90;;;;;;4999117;28;20532;-60
2021/01/22 08:53:10;;;;;;;1.70;1.60;;;5.30;99.90;;;;;;4995801;28;20935;-58
2021/01/22 08:55:37;;;;;;;2.70;1.20;;;5.30;99.90;;;;;;5000207;28;20223;-59
2021/01/22 08:58:09;;;;;;;2.00;1.40;;;5.30;99.90;;;;;;4991786;28;20471;-59
2021/01/22 09:00:35;;;;;;;3.20;1.30;;;5.30;99.90;;;;;;5000880;28;20443;-58
2021/01/22 09:03:02;;;;;;;1.73;1.57;;;5.40;99.90;;;;;;5005467;28;20431;-57
2021/01/22 09:05:27;;;;;;;2.07;1.20;;;5.40;99.90;;;;;;5000025;28;20509;-57
2021/01/22 09:08:10;;;;;;;1.37;1.23;;;5.40;99.90;;;;;;4996440;28;21005;-56
2021/01/22 09:10:46;;;;;;;1.80;1.40;;;5.50;99.90;;;;;;5003706;28;20193;-58
2021/01/22 09:13:12;;;;;;;4.80;2.73;;;5.50;99.90;;;;;;5000489;28;20427;-59
2021/01/22 09:15:39;;;;;;;3.10;2.00;;;5.60;99.90;;;;;;5005467;28;20586;-68
2021/01/22 09:18:25;;;;;;;4.87;2.20;;;5.70;99.90;;;;;;5006201;28;20446;-59
2021/01/22 09:21:01;;;;;;;2.60;2.20;;;5.80;99.90;;;;;;5004382;28;20493;-58
2021/01/22 09:23:27;;;;;;;3.60;1.87;;;5.90;99.90;;;;;;5004713;28;20436;-59
2021/01/22 09:25:53;;;;;;;3.13;2.07;;;6.00;99.90;;;;;;4999327;28;20432;-60
2021/01/22 09:28:20;;;;;;;1.30;1.10;;;6.10;99.90;;;;;;4995965;28;20660;-59
2021/01/22 09:30:45;;;;;;;0.93;0.93;;;6.20;99.90;;;;;;5002262;28;20462;-58
2021/01/22 09:33:14;;;;;;;1.00;1.00;;;6.30;99.90;;;;;;5001446;28;20516;-56
2021/01/22 09:35:41;;;;;;;1.00;0.90;;;6.40;99.90;;;;;;5007878;28;20261;-58
2021/01/22 09:38:06;;;;;;;2.50;1.33;;;6.40;99.90;;;;;;4997881;28;20460;-60
2021/01/22 09:40:32;;;;;;;1.00;0.90;;;6.50;99.50;;;;;;5005630;28;20424;-59
2021/01/22 09:42:58;;;;;;;0.80;0.80;;;6.60;99.10;;;;;;5006623;28;20531;-59
2021/01/22 09:45:24;;;;;;;1.23;1.00;;;6.60;99.00;;;;;;5004620;28;20187;-57
2021/01/22 09:47:49;;;;;;;0.90;0.90;;;6.70;98.90;;;;;;5002110;28;20208;-59
2021/01/22 09:50:17;;;;;;;1.03;1.00;;;6.70;98.90;;;;;;5006921;28;20443;-57
2021/01/22 09:52:43;;;;;;;1.17;1.00;;;6.80;98.60;;;;;;5002222;28;20682;-58
2021/01/22 09:55:14;;;;;;;4.03;1.67;;;6.80;98.30;;;;;;5001110;28;20459;-58
2021/01/22 09:57:40;;;;;;;3.00;1.43;;;6.90;98.40;;;;;;5006718;28;20898;-58
2021/01/22 10:00:08;;;;;;;2.80;1.80;;;7.00;98.40;;;;;;4995795;28;20440;-62
2021/01/22 10:02:34;;;;;;;1.60;1.50;;;7.10;98.30;;;;;;4995986;28;20443;-58
2021/01/22 10:05:00;;;;;;;1.30;1.20;;;7.30;98.00;;;;;;5004589;28;20458;-59
2021/01/22 10:07:26;;;;;;;1.30;1.20;;;7.40;97.50;;;;;;4998846;28;20928;-58
2021/01/22 10:09:52;;;;;;;1.70;1.30;;;7.40;97.40;;;;;;5001952;28;20498;-56
2021/01/22 10:12:20;;;;;;;2.03;1.00;;;7.40;97.30;;;;;;4999766;28;20485;-58
2021/01/22 10:14:46;;;;;;;1.30;1.20;;;7.40;97.20;;;;;;5003507;28;20219;-60
2021/01/22 10:17:11;;;;;;;3.17;1.43;;;7.40;97.00;;;;;;5008621;28;20489;-60
2021/01/22 10:19:37;;;;;;;1.60;1.50;;;7.50;97.00;;;;;;4996288;28;20460;-59
2021/01/22 10:22:03;;;;;;;2.10;1.30;;;7.60;96.90;;;;;;5002548;28;20755;-60
2021/01/22 10:24:30;;;;;;;1.40;1.30;;;7.70;96.70;;;;;;5000393;28;20186;-60
2021/01/22 10:26:56;;;;;;;1.87;1.40;;;7.90;96.60;;;;;;4996269;28;20432;-57
2021/01/22 10:29:22;;;;;;;2.57;1.37;;;8.00;96.50;;;;;;5006516;28;20459;-59
2021/01/22 10:31:49;;;;;;;1.80;1.70;;;8.10;95.80;;;;;;4996672;28;20432;-58
2021/01/22 10:34:15;;;;;;;2.70;1.63;;;8.30;95.50;;;;;;4993530;28;20918;-59
2021/01/22 10:36:43;;;;;;;1.63;1.10;;;8.30;94.70;;;;;;5002489;28;20586;-57
2021/01/22 10:39:11;;;;;;;3.50;1.40;;;8.40;95.30;;;;;;5002688;28;20466;-55
2021/01/22 10:41:37;;;;;;;5.97;1.50;;;8.60;95.40;;;;;;4996334;28;20420;-60
2021/01/22 10:44:09;;;;;;;1.50;1.40;;;8.70;94.20;;;;;;4997452;28;20877;-59
2021/01/22 10:46:40;;;;;;;1.90;1.23;;;8.80;93.70;;;;;;5001355;28;20436;-58
2021/01/22 10:49:06;;;;;;;1.70;1.40;;;9.00;93.30;;;;;;5000738;28;20847;-56
2021/01/22 10:51:34;;;;;;;1.70;1.27;;;9.10;91.80;;;;;;5003342;28;20436;-57
2021/01/22 10:54:03;;;;;;;1.10;1.00;;;9.00;91.40;;;;;;5004527;28;20266;-56
2021/01/22 10:56:28;;;;;;;1.47;1.37;;;9.00;91.80;;;;;;5004514;28;20806;-55
2021/01/22 10:58:57;;;;;;;2.57;1.87;;;8.90;91.10;;;;;;5006555;28;20466;-59
2021/01/22 11:01:23;;;;;;;1.77;1.50;;;8.80;91.80;;;;;;4994963;28;20232;-57
2021/01/22 11:03:52;;;;;;;3.60;1.50;;;8.80;91.60;;;;;;4999311;28;20458;-62
2021/01/22 11:06:17;;;;;;;2.30;1.47;;;8.70;91.90;;;;;;5001146;28;20433;-59
2021/01/22 11:08:43;;;;;;;3.03;1.80;;;8.70;92.10;;;;;;5000439;28;20513;-59
2021/01/22 11:11:12;;;;;;;2.00;1.60;;;8.60;92.40;;;;;;4998047;28;20189;-59
2021/01/22 11:13:38;;;;;;;1.63;1.40;;;8.60;92.40;;;;;;5001999;28;20271;-59
2021/01/22 11:16:04;;;;;;;3.03;1.93;;;8.60;92.10;;;;;;5003573;28;20557;-60
2021/01/22 11:18:29;;;;;;;7.43;1.70;;;8.60;92.00;;;;;;4999259;28;20569;-58
2021/01/22 11:20:55;;;;;;;2.77;1.73;;;8.60;92.40;;;;;;5005780;28;20204;-60
2021/01/22 11:23:21;;;;;;;1.73;1.40;;;8.60;92.60;;;;;;5003654;28;20177;-59
2021/01/22 11:25:46;;;;;;;2.40;1.73;;;8.60;92.60;;;;;;5001718;28;20196;-57
2021/01/22 11:28:12;;;;;;;6.90;1.20;;;8.60;92.30;;;;;;4999551;28;20295;-57
2021/01/22 11:30:38;;;;;;;1.40;1.30;;;8.60;92.60;;;;;;4996456;28;20188;-59
2021/01/22 11:33:03;;;;;;;3.43;1.83;;;8.60;92.30;;;;;;5007999;28;20716;-58
2021/01/22 11:35:31;;;;;;;2.13;1.60;;;8.60;92.50;;;;;;5000855;28;20193;-59
2021/01/22 11:37:57;;;;;;;2.43;2.10;;;8.70;92.40;;;;;;5001333;28;20277;-59
2021/01/22 11:40:23;;;;;;;2.07;1.90;;;8.80;92.30;;;;;;5000254;28;20574;-59
2021/01/22 11:42:48;;;;;;;4.20;2.03;;;9.00;91.30;;;;;;5002796;28;20184;-60
2021/01/22 11:45:20;;;;;;;5.70;2.70;;;9.20;90.70;;;;;;4999742;28;20239;-60
2021/01/22 11:47:46;;;;;;;3.77;2.57;;;9.40;90.10;;;;;;4996859;28;20224;-59
2021/01/22 11:50:13;;;;;;;3.00;2.40;;;9.70;89.70;;;;;;5022414;23;20629;-63
2021/01/22 11:52:38;;;;;;;2.90;2.20;;;9.80;86.60;;;;;;5004464;28;20611;-61
2021/01/22 11:55:06;;;;;;;5.13;2.57;;;9.80;86.70;;;;;;5006204;28;20498;-60
2021/01/22 11:57:31;;;;;;;3.87;2.37;;;9.90;85.40;;;;;;4998143;28;20188;-62
2021/01/22 11:59:57;;;;;;;2.20;1.90;;;9.90;85.50;;;;;;5002217;28;20490;-61
2021/01/22 12:02:26;;;;;;;3.57;2.30;;;9.90;83.60;;;;;;4996724;28;20196;-60
2021/01/22 12:04:51;;;;;;;4.50;2.00;;;9.80;84.10;;;;;;5002662;28;20176;-61
2021/01/22 12:07:17;;;;;;;2.57;1.70;;;9.80;85.70;;;;;;5004778;28;20446;-61
2021/01/22 12:09:42;;;;;;;2.57;2.07;;;9.80;84.20;;;;;;5001794;28;20211;-61
2021/01/22 12:12:09;;;;;;;2.50;2.07;;;9.80;79.60;;;;;;5000451;28;20247;-61
2021/01/22 12:14:35;;;;;;;4.90;2.20;;;10.00;80.30;;;;;;5003156;28;20203;-63
2021/01/22 12:17:01;;;;;;;2.70;1.90;;;10.40;78.20;;;;;;4997737;28;20927;-62
2021/01/22 12:19:27;;;;;;;3.93;2.40;;;10.60;73.60;;;;;;4994844;28;20471;-64
2021/01/22 12:21:52;;;;;;;3.27;1.73;;;10.60;73.20;;;;;;4994582;28;20207;-62
2021/01/22 12:24:18;;;;;;;6.23;2.53;;;10.50;73.10;;;;;;5001146;28;20643;-62
2021/01/22 12:26:44;;;;;;;3.50;2.60;;;10.20;73.90;;;;;;5008160;28;20176;-61
2021/01/22 12:29:10;;;;;;;2.43;2.23;;;9.90;78.40;;;;;;5002709;28;20272;-64
2021/01/22 12:31:36;;;;;;;3.43;2.70;;;9.70;79.00;;;;;;5000045;28;20550;-60
2021/01/22 12:34:01;;;;;;;6.07;4.00;;;9.50;81.50;;;;;;5004917;28;20215;-61
2021/01/22 12:36:27;;;;;;;6.57;3.60;;;9.40;83.60;;;;;;5018785;28;20664;-64
2021/01/22 12:38:53;;;;;;;7.70;4.67;;;9.20;85.20;;;;;;5013686;28;20610;-61
2021/01/22 12:41:19;;;;;;;10.23;5.13;;;9.10;87.30;;;;;;5010829;28;20192;-61
2021/01/22 12:43:44;;;;;;;7.87;4.00;;;9.00;87.90;;;;;;5000117;28;20551;-63
2021/01/22 12:46:12;;;;;;;6.13;3.20;;;9.00;89.70;;;;;;4983750;28;20189;-61
2021/01/22 12:48:38;;;;;;;4.20;2.80;;;8.90;89.90;;;;;;5000315;28;20171;-61
2021/01/22 12:51:04;;;;;;;5.03;3.33;;;8.90;90.00;;;;;;5002982;28;20506;-62
2021/01/22 12:53:29;;;;;;;5.30;3.23;;;8.90;90.70;;;;;;5010655;28;20431;-61
2021/01/22 12:55:55;;;;;;;5.10;3.33;;;8.90;91.00;;;;;;5012240;28;20235;-61
2021/01/22 12:58:21;;;;;;;5.10;3.87;;;8.90;91.00;;;;;;4984560;28;20612;-61
2021/01/22 13:00:47;;;;;;;4.73;2.97;;;8.90;90.40;;;;;;5003086;28;20689;-63
2021/01/22 13:03:12;;;;;;;3.90;2.40;;;8.90;90.70;;;;;;5006636;28;20191;-61